Time;durP1;ratioP1;P1;durP2;ratioP2;P2;SDS_P1;SDS_P2;PMS_P1;PMS_P2;Temp;Humidity;BMP_temperature;BMP_pressure;BME280_temperature;BME280_humidity;BME280_pressure;Samples;Min_cycle;Max_cycle;Signal;HPM_P1;HPM_P2
2022/05/04 00:00:57;;;;;;;9.40;3.80;;;;;;;10.89;57.13;101859.03;5202076;28;20058;-75
2022/05/04 00:03:29;;;;;;;8.97;3.37;;;;;;;10.58;58.04;101868.25;5202576;28;20029;-75
2022/05/04 00:06:00;;;;;;;13.80;4.47;;;;;;;10.59;57.99;101866.50;5202324;28;20049;-75
2022/05/04 00:08:31;;;;;;;13.27;4.43;;;;;;;10.46;58.22;101863.50;5202749;28;20053;-75
2022/05/04 00:11:04;;;;;;;15.53;4.40;;;;;;;10.72;58.21;101864.16;5201149;28;20034;-75
2022/05/04 00:13:35;;;;;;;15.03;5.10;;;;;;;10.48;58.54;101866.94;5201972;28;20052;-75
2022/05/04 00:16:06;;;;;;;10.10;3.80;;;;;;;10.97;57.16;101863.09;5201862;28;20025;-75
2022/05/04 00:18:37;;;;;;;11.50;4.30;;;;;;;10.70;57.96;101866.03;5202032;28;20025;-75
2022/05/04 00:21:09;;;;;;;10.63;4.57;;;;;;;10.51;58.16;101865.06;5201458;28;21259;-74
2022/05/04 00:23:40;;;;;;;12.77;4.00;;;;;;;10.37;58.61;101875.22;5201921;28;20029;-75
2022/05/04 00:26:11;;;;;;;12.07;4.40;;;;;;;10.26;59.32;101867.84;5201432;28;20049;-74
2022/05/04 00:28:43;;;;;;;8.93;3.70;;;;;;;10.29;59.01;101868.56;5201449;28;20049;-74
2022/05/04 00:31:14;;;;;;;12.03;4.30;;;;;;;10.40;59.01;101870.72;5201434;28;20133;-74
2022/05/04 00:33:45;;;;;;;9.23;3.97;;;;;;;10.46;58.76;101866.13;5206428;28;20461;-75
2022/05/04 00:36:16;;;;;;;11.13;4.37;;;;;;;10.19;59.60;101858.53;5200234;28;20066;-75
2022/05/04 00:38:48;;;;;;;11.37;4.13;;;;;;;10.32;59.46;101867.56;5208103;28;20022;-74
2022/05/04 00:41:19;;;;;;;12.27;4.53;;;;;;;10.09;60.17;101864.16;5212663;28;20041;-75
2022/05/04 00:43:54;;;;;;;13.00;4.63;;;;;;;10.11;60.33;101864.06;5211344;28;20049;-74
2022/05/04 00:46:25;;;;;;;6.73;3.43;;;;;;;10.20;60.07;101860.22;5211552;28;20033;-74
2022/05/04 00:48:57;;;;;;;9.93;4.57;;;;;;;10.35;59.64;101859.56;5212505;28;20389;-74
2022/05/04 00:51:28;;;;;;;11.63;4.37;;;;;;;10.38;59.86;101862.09;5211841;28;20428;-75
2022/05/04 00:54:00;;;;;;;9.63;4.47;;;;;;;10.55;59.38;101860.53;5212057;28;20385;-72
2022/05/04 00:56:31;;;;;;;10.53;4.20;;;;;;;10.28;59.98;101860.78;5211588;28;20786;-75
2022/05/04 00:59:02;;;;;;;13.70;5.17;;;;;;;10.16;60.52;101857.75;5211132;28;20164;-73
2022/05/04 01:01:34;;;;;;;13.87;6.00;;;;;;;10.31;60.22;101851.94;5211957;28;20072;-74
2022/05/04 01:04:05;;;;;;;14.97;5.30;;;;;;;10.28;60.67;101856.38;5212543;28;20030;-74
2022/05/04 01:06:36;;;;;;;12.03;5.50;;;;;;;10.46;60.01;101856.50;5211316;28;20034;-74
2022/05/04 01:09:07;;;;;;;12.40;5.07;;;;;;;10.39;60.59;101850.69;5210440;28;20041;-74
2022/05/04 01:11:39;;;;;;;14.53;5.23;;;;;;;10.17;61.15;101841.13;5211455;28;20038;-74
2022/05/04 01:14:11;;;;;;;18.97;6.33;;;;;;;10.25;61.10;101860.88;5211787;28;20488;-74
2022/05/04 01:16:51;;;;;;;8.60;5.60;;;;;;;10.23;61.16;101854.84;5212408;28;20483;-74
2022/05/04 01:19:23;;;;;;;11.10;5.03;;;;;;;10.12;61.72;101855.34;5213278;28;20030;-74
2022/05/04 01:21:54;;;;;;;12.67;4.87;;;;;;;10.21;61.99;101861.94;5215080;28;20030;-75
2022/05/04 01:24:25;;;;;;;12.60;4.93;;;;;;;10.14;61.71;101851.72;5212334;28;20038;-75
2022/05/04 01:26:56;;;;;;;12.97;5.83;;;;;;;10.21;61.97;101856.72;5212767;28;20053;-75
2022/05/04 01:29:28;;;;;;;13.90;5.80;;;;;;;10.47;61.23;101860.84;5226515;28;20032;-76
2022/05/04 01:31:59;;;;;;;14.63;5.97;;;;;;;10.35;61.36;101856.13;5212320;28;20030;-73
2022/05/04 01:34:30;;;;;;;15.73;5.97;;;;;;;10.15;61.96;101849.97;5212143;28;20030;-75
2022/05/04 01:37:02;;;;;;;15.27;5.57;;;;;;;10.32;61.74;101853.63;5198198;28;20500;-75
2022/05/04 01:39:33;;;;;;;13.87;5.07;;;;;;;10.30;61.56;101853.69;5202862;28;20071;-75
2022/05/04 01:42:15;;;;;;;15.53;5.43;;;;;;;10.37;61.35;101849.91;5209836;28;20037;-75
2022/05/04 01:44:47;;;;;;;13.53;5.63;;;;;;;10.35;61.62;101853.50;5210628;28;20040;-75
2022/05/04 01:47:18;;;;;;;13.83;5.23;;;;;;;10.57;60.71;101853.47;5210460;28;20022;-75
2022/05/04 01:49:50;;;;;;;15.43;6.07;;;;;;;10.37;61.26;101855.13;5210841;28;20033;-76
2022/05/04 01:52:21;;;;;;;8.83;5.03;;;;;;;10.64;60.22;101852.28;5208323;28;20045;-75
2022/05/04 01:54:53;;;;;;;11.47;4.83;;;;;;;10.44;61.16;101850.47;5210722;28;20030;-75
2022/05/04 01:57:24;;;;;;;13.37;5.17;;;;;;;10.45;60.92;101846.09;5210412;28;20037;-75
2022/05/04 01:59:55;;;;;;;11.93;5.57;;;;;;;10.40;60.97;101838.44;5211918;28;20469;-75
2022/05/04 02:02:27;;;;;;;15.67;5.07;;;;;;;10.58;60.61;101842.06;5210935;28;20465;-76
2022/05/04 02:04:58;;;;;;;12.43;5.30;;;;;;;10.52;61.05;101839.72;5212173;28;20116;-75
2022/05/04 02:07:30;;;;;;;10.80;4.80;;;;;;;10.32;61.80;101848.38;5209538;28;20034;-76
2022/05/04 02:10:02;;;;;;;12.00;5.13;;;;;;;10.13;61.71;101842.19;5211389;28;20137;-75
2022/05/04 02:12:34;;;;;;;10.30;4.87;;;;;;;10.31;61.35;101844.94;5211568;28;20492;-75
2022/05/04 02:15:08;;;;;;;14.73;5.27;;;;;;;10.44;61.19;101847.03;5211152;28;20113;-76
2022/05/04 02:17:39;;;;;;;10.15;4.50;;;;;;;10.40;61.36;101848.94;5211481;28;20179;-75
2022/05/04 02:20:11;;;;;;;12.83;5.37;;;;;;;10.30;60.97;101848.44;5211467;28;20028;-75
2022/05/04 02:22:42;;;;;;;13.63;4.90;;;;;;;10.35;60.72;101829.94;5212758;28;20029;-74
2022/05/04 02:25:13;;;;;;;12.10;4.80;;;;;;;10.14;61.50;101833.41;5217755;28;20025;-75
2022/05/04 02:27:44;;;;;;;17.60;6.10;;;;;;;10.22;61.13;101846.19;5218216;28;20022;-77
2022/05/04 02:30:16;;;;;;;14.73;5.37;;;;;;;10.23;61.05;101839.16;5233616;28;20785;-74
2022/05/04 02:32:47;;;;;;;9.80;5.50;;;;;;;10.06;61.79;101838.09;5218343;28;20388;-74
2022/05/04 02:38:08;;;;;;;13.27;4.80;;;;;;;10.17;61.35;101841.13;5206803;28;20129;-75
2022/05/04 02:40:39;;;;;;;12.07;5.20;;;;;;;10.20;61.26;101836.66;5214944;28;20029;-74
2022/05/04 02:43:11;;;;;;;11.70;4.73;;;;;;;10.26;61.12;101841.66;5216624;28;20161;-74
2022/05/04 02:45:42;;;;;;;10.77;4.67;;;;;;;10.28;61.15;101834.59;5217629;28;20194;-74
2022/05/04 02:48:13;;;;;;;15.63;5.47;;;;;;;10.17;61.22;101833.25;5217508;28;20061;-75
2022/05/04 02:50:44;;;;;;;13.50;4.80;;;;;;;10.38;60.42;101833.28;5217240;28;20026;-76
2022/05/04 02:53:16;;;;;;;13.30;5.20;;;;;;;10.37;60.54;101826.31;5217793;28;20030;-75
2022/05/04 02:55:47;;;;;;;13.27;4.23;;;;;;;10.18;60.94;101834.13;5215771;28;20018;-75
2022/05/04 02:58:19;;;;;;;17.50;5.77;;;;;;;10.24;60.90;101825.16;5215373;28;20045;-74
2022/05/04 03:00:50;;;;;;;14.70;5.20;;;;;;;10.17;60.79;101814.94;5216793;28;20038;-74
2022/05/04 03:03:21;;;;;;;11.57;4.23;;;;;;;10.27;60.69;101825.88;5216240;28;20634;-74
2022/05/04 03:05:52;;;;;;;13.53;4.30;;;;;;;10.25;60.71;101819.00;5216699;28;20533;-75
2022/05/04 03:08:24;;;;;;;12.90;4.87;;;;;;;10.07;61.20;101820.66;5216991;28;20060;-75
2022/05/04 03:13:47;;;;;;;16.57;4.67;;;;;;;9.83;61.55;101818.97;5207161;28;20040;-74
2022/05/04 03:16:18;;;;;;;10.93;4.73;;;;;;;9.95;61.09;101827.25;5215766;28;20018;-74
2022/05/04 03:18:49;;;;;;;14.17;4.90;;;;;;;10.01;60.94;101821.75;5218068;28;20533;-74
2022/05/04 03:21:20;;;;;;;13.17;5.10;;;;;;;10.04;60.88;101812.00;5216726;28;20026;-74
2022/05/04 03:23:52;;;;;;;12.57;4.07;;;;;;;10.25;59.80;101814.63;5216657;28;20025;-74
2022/05/04 03:26:26;;;;;;;10.17;4.97;;;;;;;9.90;61.46;101815.19;5217038;28;20084;-74
2022/05/04 03:28:58;;;;;;;15.70;5.10;;;;;;;9.82;61.61;101806.81;5218261;28;20025;-74
2022/05/04 03:31:29;;;;;;;11.33;4.60;;;;;;;9.83;61.67;101808.50;5216498;28;20489;-74
2022/05/04 03:34:01;;;;;;;19.90;5.20;;;;;;;9.83;61.76;101816.34;5215744;28;20034;-74
2022/05/04 03:36:35;;;;;;;12.10;4.57;;;;;;;9.68;61.91;101813.47;5203613;28;20057;-75
2022/05/04 03:39:07;;;;;;;14.20;4.80;;;;;;;9.82;61.65;101812.03;5202633;28;20081;-74
2022/05/04 03:41:39;;;;;;;14.33;5.60;;;;;;;9.75;62.16;101813.22;5217642;28;20065;-74
2022/05/04 03:44:10;;;;;;;12.27;4.87;;;;;;;9.61;62.38;101808.53;5213932;28;20064;-74
2022/05/04 03:46:46;;;;;;;13.63;5.23;;;;;;;9.92;61.41;101813.38;5214098;28;20029;-74
2022/05/04 03:49:20;;;;;;;17.53;5.90;;;;;;;9.73;61.85;101812.41;5213639;28;20068;-75
2022/05/04 03:51:52;;;;;;;12.63;4.47;;;;;;;9.81;61.59;101807.72;5213909;28;20488;-75
2022/05/04 03:54:25;;;;;;;17.83;6.23;;;;;;;9.91;61.62;101818.66;5211910;28;20033;-72
2022/05/04 03:56:56;;;;;;;11.63;5.00;;;;;;;9.61;62.23;101808.53;5213812;28;20045;-74
2022/05/04 03:59:27;;;;;;;15.23;4.83;;;;;;;9.56;62.78;101808.72;5214184;28;20026;-74
2022/05/04 04:01:58;;;;;;;16.37;6.00;;;;;;;9.80;61.52;101809.50;5213440;28;20049;-75
2022/05/04 04:04:30;;;;;;;10.80;5.13;;;;;;;9.59;62.65;101810.34;5213841;28;20018;-74
2022/05/04 04:07:01;;;;;;;10.30;4.90;;;;;;;9.61;62.82;101819.00;5212139;28;20030;-74
2022/05/04 04:09:32;;;;;;;14.83;5.03;;;;;;;9.80;62.00;101808.63;5213629;28;20073;-75
2022/05/04 04:12:04;;;;;;;12.23;4.33;;;;;;;9.73;62.08;101807.19;5213385;28;20129;-75
2022/05/04 04:14:35;;;;;;;16.57;5.47;;;;;;;9.69;62.44;101809.06;5213912;28;20033;-75
2022/05/04 04:17:06;;;;;;;16.23;5.40;;;;;;;9.43;63.31;101810.97;5212389;28;20038;-75
2022/05/04 04:19:37;;;;;;;11.57;4.43;;;;;;;9.39;63.48;101804.16;5211876;28;20397;-74
2022/05/04 04:22:09;;;;;;;14.97;4.93;;;;;;;9.43;63.19;101806.59;5212608;28;20038;-75
2022/05/04 04:24:40;;;;;;;15.17;5.67;;;;;;;9.29;63.59;101806.28;5213239;28;20492;-75
2022/05/04 04:27:11;;;;;;;16.20;5.60;;;;;;;9.06;64.27;101810.63;5213909;28;20052;-74
2022/05/04 04:29:42;;;;;;;12.47;5.47;;;;;;;9.21;64.23;101814.44;5213055;28;20034;-75
2022/05/04 04:32:14;;;;;;;15.17;5.37;;;;;;;9.19;63.86;101804.03;5212079;28;20045;-75
2022/05/04 04:34:45;;;;;;;20.23;7.03;;;;;;;9.08;64.63;101809.66;5213117;28;20030;-75
2022/05/04 04:37:17;;;;;;;15.53;5.80;;;;;;;9.14;64.53;101816.44;5197199;28;20026;-75
2022/05/04 04:39:48;;;;;;;17.47;6.17;;;;;;;9.10;64.95;101814.84;5201441;28;20041;-75
2022/05/04 04:42:19;;;;;;;14.50;5.97;;;;;;;9.10;64.69;101819.19;5202028;28;20041;-75
2022/05/04 04:44:51;;;;;;;14.17;6.13;;;;;;;8.96;65.43;101804.91;5202556;28;20116;-74
2022/05/04 04:47:22;;;;;;;17.73;6.10;;;;;;;8.95;64.93;101817.09;5199831;28;20048;-75
2022/05/04 04:49:57;;;;;;;18.63;6.20;;;;;;;9.09;65.00;101818.38;5201757;28;20045;-73
2022/05/04 04:52:28;;;;;;;20.87;6.27;;;;;;;9.11;65.06;101820.91;5200757;28;20080;-74
2022/05/04 04:54:59;;;;;;;15.13;6.17;;;;;;;9.02;64.91;101817.75;5201797;28;20034;-75
2022/05/04 04:57:33;;;;;;;16.27;5.93;;;;;;;9.14;64.55;101813.81;5201200;28;20096;-75
2022/05/04 05:00:05;;;;;;;18.97;6.87;;;;;;;9.00;65.11;101810.88;5201221;28;20088;-75
2022/05/04 05:02:36;;;;;;;15.90;5.93;;;;;;;9.08;64.84;101820.13;5201960;28;20455;-74
2022/05/04 05:05:08;;;;;;;17.30;6.17;;;;;;;9.02;65.03;101806.44;5199939;28;20133;-74
2022/05/04 05:07:39;;;;;;;14.70;7.10;;;;;;;8.91;65.25;101814.66;5202865;28;20548;-74
2022/05/04 05:10:11;;;;;;;13.57;5.17;;;;;;;8.95;65.37;101813.66;5201189;28;20079;-74
2022/05/04 05:12:42;;;;;;;13.67;6.50;;;;;;;8.96;65.33;101823.19;5202163;28;20076;-74
2022/05/04 05:18:04;;;;;;;12.50;5.23;;;;;;;8.90;65.26;101818.19;5201019;28;20080;-75
2022/05/04 05:20:35;;;;;;;13.47;6.03;;;;;;;8.98;65.72;101817.91;5200251;28;20148;-73
2022/05/04 05:23:06;;;;;;;17.63;6.13;;;;;;;8.92;65.48;101832.91;5201241;28;20026;-74
2022/05/04 05:25:38;;;;;;;13.03;5.77;;;;;;;8.90;65.02;101828.66;5201070;28;20149;-74
2022/05/04 05:28:09;;;;;;;16.03;6.20;;;;;;;8.93;65.25;101824.16;5200943;28;20141;-74
2022/05/04 05:30:42;;;;;;;14.30;6.13;;;;;;;8.92;65.27;101824.22;5200314;28;20029;-74
2022/05/04 05:33:13;;;;;;;15.77;6.63;;;;;;;9.08;64.85;101827.09;5200535;28;20496;-74
2022/05/04 05:35:44;;;;;;;12.57;5.37;;;;;;;8.89;65.31;101822.56;5199021;28;20125;-74
2022/05/04 05:38:16;;;;;;;19.63;7.20;;;;;;;9.06;64.70;101823.69;5199041;28;20113;-74
2022/05/04 05:40:47;;;;;;;15.63;6.20;;;;;;;9.10;64.70;101827.91;5201112;28;20034;-74
2022/05/04 05:43:18;;;;;;;16.20;5.50;;;;;;;9.09;64.51;101818.38;5200151;28;20030;-75
2022/05/04 05:45:50;;;;;;;19.70;7.10;;;;;;;8.97;65.12;101830.13;5199956;28;21185;-75
2022/05/04 05:48:21;;;;;;;14.87;6.30;;;;;;;9.10;64.94;101822.66;5198813;28;20104;-75
2022/05/04 05:50:52;;;;;;;21.73;6.03;;;;;;;8.94;64.86;101796.25;5198005;28;20052;-74
2022/05/04 05:53:23;;;;;;;22.90;6.77;;;;;;;9.23;64.59;101830.91;5198055;28;20045;-76
2022/05/04 05:55:55;;;;;;;19.07;6.37;;;;;;;9.27;64.57;101821.16;5200885;28;20073;-75
2022/05/04 05:58:26;;;;;;;11.70;5.23;;;;;;;9.23;64.83;101837.88;5200016;28;20033;-77
2022/05/04 06:00:58;;;;;;;18.03;5.33;;;;;;;9.39;63.91;101831.16;5199763;28;20045;-76
2022/05/04 06:03:30;;;;;;;14.33;6.30;;;;;;;9.25;64.11;101823.00;5198983;28;20038;-74
2022/05/04 06:06:01;;;;;;;15.33;6.80;;;;;;;9.14;64.49;101826.88;5198576;28;20033;-76
2022/05/04 06:08:32;;;;;;;16.17;7.00;;;;;;;9.20;64.45;101836.22;5199338;28;20570;-75
2022/05/04 06:11:05;;;;;;;15.53;6.43;;;;;;;9.17;64.38;101837.22;5198277;28;20030;-76
2022/05/04 06:13:36;;;;;;;17.60;7.37;;;;;;;9.16;65.57;101838.09;5200067;28;20117;-76
2022/05/04 06:16:07;;;;;;;27.50;7.47;;;;;;;9.28;64.41;101841.19;5199378;28;20034;-76
2022/05/04 06:18:38;;;;;;;16.87;6.43;;;;;;;9.50;64.31;101838.56;5200476;28;20029;-75
2022/05/04 06:21:10;;;;;;;15.93;6.10;;;;;;;9.43;64.06;101842.34;5198267;28;20116;-75
2022/05/04 06:23:41;;;;;;;16.60;5.80;;;;;;;9.59;63.75;101841.75;5200240;28;20037;-76
2022/05/04 06:26:13;;;;;;;15.40;5.80;;;;;;;9.60;63.74;101846.91;5199318;28;20030;-75
2022/05/04 06:28:44;;;;;;;18.43;6.97;;;;;;;9.52;64.62;101846.34;5199506;28;20116;-76
2022/05/04 06:34:10;;;;;;;21.63;6.63;;;;;;;9.79;63.18;101843.56;5202617;28;20156;-76
2022/05/04 06:36:42;;;;;;;21.47;5.93;;;;;;;9.98;62.00;101840.19;5198453;28;20026;-75
2022/05/04 06:39:13;;;;;;;17.90;6.47;;;;;;;10.04;60.89;101851.25;5205988;28;20030;-75
2022/05/04 06:41:45;;;;;;;17.77;6.87;;;;;;;10.36;60.51;101857.81;5210014;28;20037;-75
2022/05/04 06:44:16;;;;;;;15.30;5.80;;;;;;;10.31;61.14;101858.03;5210975;28;20029;-76
2022/05/04 06:46:48;;;;;;;18.80;5.80;;;;;;;10.41;59.95;101851.47;5210425;28;20026;-76
2022/05/04 06:49:19;;;;;;;16.17;5.33;;;;;;;10.71;59.12;101863.34;5211506;28;20134;-75
2022/05/04 06:51:50;;;;;;;17.60;4.63;;;;;;;10.95;59.27;101859.69;5211329;28;20057;-75
2022/05/04 06:54:22;;;;;;;15.50;5.63;;;;;;;10.79;58.55;101864.78;5211803;28;20022;-75
2022/05/04 06:56:53;;;;;;;15.27;5.70;;;;;;;11.13;57.76;101858.00;5210937;28;20053;-72
2022/05/04 06:59:26;;;;;;;14.03;5.33;;;;;;;11.19;57.58;101852.47;5210715;28;20022;-75
2022/05/04 07:01:58;;;;;;;13.43;5.23;;;;;;;11.41;56.41;101851.47;5210007;28;20084;-76
2022/05/04 07:04:29;;;;;;;21.33;5.10;;;;;;;11.46;56.56;101852.09;5209835;28;20046;-75
2022/05/04 07:07:00;;;;;;;14.37;5.30;;;;;;;11.52;55.77;101842.25;5208871;28;20105;-75
2022/05/04 07:09:33;;;;;;;19.07;5.73;;;;;;;11.61;55.27;101841.78;5208197;28;20033;-76
2022/05/04 07:12:05;;;;;;;13.43;5.03;;;;;;;11.76;54.92;101845.44;5213530;28;20022;-74
2022/05/04 07:14:36;;;;;;;13.87;4.47;;;;;;;11.77;54.70;101838.41;5214478;28;20040;-76
2022/05/04 07:17:07;;;;;;;15.87;5.47;;;;;;;12.14;54.24;101848.88;5205850;28;20050;-79
2022/05/04 07:19:39;;;;;;;14.03;4.50;;;;;;;12.33;53.26;101848.81;5211604;28;20112;-79
2022/05/04 07:22:10;;;;;;;16.07;5.10;;;;;;;12.67;53.07;101846.22;5207680;28;20034;-76
2022/05/04 07:24:41;;;;;;;15.93;5.77;;;;;;;12.86;52.85;101835.56;5204356;28;20038;-76
2022/05/04 07:27:12;;;;;;;15.07;5.47;;;;;;;13.28;51.76;101830.66;5212746;28;20502;-77
2022/05/04 07:29:46;;;;;;;11.90;4.53;;;;;;;13.71;48.72;101837.09;5213391;28;20966;-77
2022/05/04 07:32:17;;;;;;;14.85;5.00;;;;;;;14.18;48.32;101839.66;5213461;28;20018;-78
2022/05/04 07:34:49;;;;;;;18.07;4.53;;;;;;;14.69;47.41;101838.41;5213464;28;20022;-74
2022/05/04 07:37:20;;;;;;;13.97;4.60;;;;;;;15.36;46.27;101830.75;5199683;28;20026;-74
2022/05/04 07:42:41;;;;;;;11.80;4.50;;;;;;;16.24;43.46;101835.66;5208997;28;20046;-74
2022/05/04 07:45:13;;;;;;;11.03;5.80;;;;;;;16.52;43.08;101844.31;5212175;28;20086;-77
2022/05/04 07:47:44;;;;;;;12.20;4.60;;;;;;;16.83;42.28;101825.44;5209958;28;20041;-75
2022/05/04 07:50:17;;;;;;;20.13;5.47;;;;;;;17.52;41.34;101838.16;5212488;28;20030;-77
2022/05/04 07:52:48;;;;;;;13.73;5.80;;;;;;;17.78;39.55;101843.31;5207672;28;20707;-76
2022/05/04 07:55:20;;;;;;;14.93;5.20;;;;;;;17.94;38.84;101846.63;5226207;28;20042;-77
2022/05/04 07:57:51;;;;;;;10.53;3.80;;;;;;;18.48;37.90;101847.81;5205536;28;20080;-76
2022/05/04 08:06:04;;;;;;;13.82;5.15;;;;;;;20.02;35.06;101849.72;5212996;28;20069;-77
2022/05/04 08:08:35;;;;;;;13.73;6.55;;;;;;;20.01;34.72;101848.06;5212734;28;20107;-76
2022/05/04 08:11:06;;;;;;;13.32;5.03;;;;;;;20.12;34.83;101856.97;5212736;28;20037;-76
2022/05/04 08:13:37;;;;;;;11.13;5.70;;;;;;;20.40;33.78;101849.28;5214206;28;20026;-77
2022/05/04 08:16:11;;;;;;;14.18;5.68;;;;;;;20.55;33.20;101839.97;5211575;28;20104;-77
2022/05/04 08:18:42;;;;;;;13.95;5.38;;;;;;;20.72;32.99;101848.28;5209020;28;20041;-76
2022/05/04 08:21:14;;;;;;;13.20;6.10;;;;;;;21.20;32.80;101840.59;5211802;28;20041;-76
2022/05/04 08:23:45;;;;;;;9.88;4.82;;;;;;;22.29;31.88;101837.00;5201920;28;20065;-76
2022/05/04 08:26:16;;;;;;;10.60;5.22;;;;;;;22.00;31.34;101838.75;5212280;28;20030;-76
2022/05/04 08:28:48;;;;;;;11.73;5.78;;;;;;;21.74;30.71;101836.66;5213469;28;20033;-76
2022/05/04 08:31:21;;;;;;;10.80;4.82;;;;;;;23.26;30.23;101843.81;5213525;28;20783;-77
2022/05/04 08:33:54;;;;;;;12.20;5.22;;;;;;;23.16;29.61;101850.06;5212334;28;20061;-76
2022/05/04 08:36:26;;;;;;;16.40;5.57;;;;;;;23.33;28.97;101855.56;5202407;28;20628;-76
2022/05/04 08:38:57;;;;;;;11.57;5.35;;;;;;;23.64;29.05;101844.50;5201680;28;20049;-77
2022/05/04 08:41:30;;;;;;;13.63;5.32;;;;;;;23.63;28.95;101840.16;5209787;28;20030;-77
2022/05/04 08:44:03;;;;;;;27.50;6.72;;;;;;;24.50;28.46;101845.72;5209376;28;20088;-77
2022/05/04 08:46:38;;;;;;;9.82;5.63;;;;;;;23.93;27.82;101851.41;5215872;28;20053;-77
2022/05/04 08:49:12;;;;;;;10.73;5.28;;;;;;;24.32;28.10;101843.97;5209239;28;20389;-77
2022/05/04 08:51:44;;;;;;;13.20;5.53;;;;;;;24.22;28.09;101843.25;5211940;28;20061;-76
2022/05/04 08:54:15;;;;;;;12.27;5.70;;;;;;;24.03;27.96;101839.78;5212448;28;20022;-77
2022/05/04 08:56:47;;;;;;;10.90;5.03;;;;;;;23.77;27.12;101830.72;5212915;28;20026;-77
2022/05/04 08:59:18;;;;;;;11.77;5.05;;;;;;;24.98;26.79;101837.19;5211019;28;20468;-77
2022/05/04 09:01:49;;;;;;;13.27;5.72;;;;;;;24.46;27.17;101833.66;5212062;28;20056;-76
2022/05/04 09:04:21;;;;;;;8.50;4.40;;;;;;;25.33;26.92;101835.25;5214943;28;20385;-76
2022/05/04 09:06:52;;;;;;;12.40;5.80;;;;;;;25.46;25.76;101845.47;5212100;28;20405;-78
2022/05/04 09:09:24;;;;;;;10.38;5.13;;;;;;;26.10;24.91;101843.94;5205477;28;20054;-78
2022/05/04 09:12:02;;;;;;;9.63;4.93;;;;;;;26.69;25.88;101841.88;5211008;28;20042;-79
2022/05/04 09:14:35;;;;;;;9.95;5.32;;;;;;;26.60;24.61;101826.81;5209705;28;20394;-80
2022/05/04 09:17:09;;;;;;;9.05;5.38;;;;;;;27.03;24.15;101839.03;5227438;28;20037;-82
2022/05/04 09:20:45;;;;;;;13.15;5.43;;;;;;;27.08;23.88;101828.59;5211589;28;20026;-79
2022/05/04 09:22:50;;;;;;;10.10;5.40;;;;;;;26.46;24.83;101834.59;5211261;28;20050;-79
2022/05/04 09:25:23;;;;;;;11.80;6.50;;;;;;;26.66;23.65;101839.56;5204470;28;20037;-81
2022/05/04 09:27:56;;;;;;;11.30;6.57;;;;;;;26.48;22.66;101829.03;5212140;28;20032;-80
2022/05/04 09:30:27;;;;;;;9.10;5.90;;;;;;;26.40;23.51;101826.41;5212753;28;20041;-80
2022/05/04 09:32:58;;;;;;;11.77;5.47;;;;;;;25.94;23.91;101822.47;5211134;28;20112;-78
2022/05/04 09:35:31;;;;;;;8.48;5.75;;;;;;;26.05;23.81;101822.13;5203874;28;20029;-78
2022/05/04 09:46:52;;;;;;;14.75;6.32;;;;;;;27.21;22.72;101822.63;5209031;28;20034;-78
2022/05/04 09:49:33;;;;;;;7.90;4.95;;;;;;;28.26;23.25;101819.25;5192873;28;20018;-73
2022/05/04 09:52:04;;;;;;;12.95;5.40;;;;;;;28.89;21.58;101825.16;5208728;28;20084;-78
2022/05/04 09:54:36;;;;;;;10.55;5.28;;;;;;;27.99;21.87;101815.38;5201696;28;20030;-78
2022/05/04 09:57:07;;;;;;;9.07;5.85;;;;;;;28.37;21.98;101812.59;5204622;28;20024;-77
2022/05/04 09:59:42;;;;;;;9.30;5.43;;;;;;;28.30;22.27;101813.47;5209212;28;20041;-78
2022/05/04 10:02:13;;;;;;;9.48;5.50;;;;;;;29.33;21.24;101809.84;5209088;28;20030;-78
2022/05/04 10:04:47;;;;;;;17.15;5.95;;;;;;;29.66;21.12;101811.16;5210938;28;20029;-77
2022/05/04 10:07:21;;;;;;;8.57;5.70;;;;;;;28.89;21.04;101813.56;5210343;28;20133;-78
2022/05/04 10:09:52;;;;;;;11.15;5.82;;;;;;;29.36;20.46;101808.63;5211040;28;20049;-78
2022/05/04 10:12:26;;;;;;;9.68;5.07;;;;;;;28.20;21.04;101817.31;5210930;28;20037;-74
2022/05/04 10:14:58;;;;;;;10.35;5.18;;;;;;;28.58;20.15;101812.81;5203646;28;20022;-78
2022/05/04 10:17:31;;;;;;;12.55;5.93;;;;;;;27.58;21.01;101808.53;5210622;28;20054;-79
2022/05/04 10:20:09;;;;;;;10.35;6.13;;;;;;;29.56;20.86;101802.53;5210325;28;20037;-77
2022/05/04 10:23:13;;;;;;;54.95;9.55;;;;;;;29.22;21.82;101808.50;5210158;28;20034;-78
2022/05/04 10:25:45;;;;;;;11.25;5.70;;;;;;;28.14;21.21;101807.28;5210708;28;20100;-78
2022/05/04 10:28:17;;;;;;;18.08;5.90;;;;;;;28.38;21.28;101808.03;5212082;28;20625;-77
2022/05/04 10:30:59;;;;;;;9.98;5.03;;;;;;;29.92;20.82;101798.84;5209949;28;20032;-78
2022/05/04 10:33:32;;;;;;;9.32;5.30;;;;;;;30.15;19.60;101811.22;5211113;28;20260;-78
2022/05/04 10:36:13;;;;;;;;;;;;;;;31.31;19.98;101812.38;5210350;28;20953;-77
2022/05/04 10:38:46;;;;;;;19.63;6.43;;;;;;;28.61;20.04;101807.03;5202029;28;19924;-76
2022/05/04 10:41:38;;;;;;;7.93;5.15;;;;;;;30.71;19.91;101797.72;5197555;28;20096;-77
2022/05/04 10:44:11;;;;;;;8.15;5.10;;;;;;;29.79;19.21;101801.47;5200428;28;20046;-77
2022/05/04 10:46:45;;;;;;;9.98;5.10;;;;;;;30.21;19.29;101808.75;5203526;28;20765;-81
2022/05/04 10:49:17;;;;;;;15.32;5.85;;;;;;;30.57;18.76;101812.22;5202908;28;20038;-82
2022/05/04 10:51:49;;;;;;;10.07;5.60;;;;;;;29.74;19.27;101804.78;5202967;28;20033;-82
2022/05/04 10:54:22;;;;;;;9.82;5.47;;;;;;;30.34;18.70;101803.44;5202224;28;20030;-80
2022/05/04 10:56:54;;;;;;;9.65;6.15;;;;;;;29.02;19.85;101797.56;5203919;28;20139;-74
2022/05/04 10:59:33;;;;;;;11.18;5.68;;;;;;;28.56;19.87;101796.00;5206685;28;20165;-82
2022/05/04 11:02:11;;;;;;;12.23;6.05;;;;;;;28.62;20.51;101793.41;5205175;28;20072;-83
2022/05/04 11:04:42;;;;;;;16.25;6.30;;;;;;;29.13;20.37;101790.81;5212853;28;20143;-84
2022/05/04 11:07:13;;;;;;;13.68;6.43;;;;;;;27.98;21.22;101779.53;5208280;28;20041;-85
2022/05/04 11:09:47;;;;;;;10.48;5.15;;;;;;;28.05;21.40;101789.56;5206198;28;20046;-81
2022/05/04 11:12:20;;;;;;;9.48;5.28;;;;;;;27.13;21.88;101788.56;5212448;28;20037;-84
2022/05/04 11:14:52;;;;;;;10.07;5.65;;;;;;;27.70;21.10;101784.72;5208253;28;20109;-80
2022/05/04 11:17:23;;;;;;;13.63;5.72;;;;;;;27.30;22.05;101783.88;5202075;28;20079;-75
2022/05/04 11:19:54;;;;;;;10.10;5.50;;;;;;;27.12;21.53;101783.38;5202142;28;20045;-80
2022/05/04 11:22:26;;;;;;;13.30;5.70;;;;;;;26.84;22.70;101786.56;5204547;28;20034;-82
2022/05/04 11:24:58;;;;;;;11.85;5.75;;;;;;;27.87;21.64;101775.47;5202114;28;20618;-83
2022/05/04 11:27:31;;;;;;;14.37;6.20;;;;;;;28.03;21.82;101771.72;5202564;28;20507;-80
2022/05/04 11:30:05;;;;;;;16.50;6.90;;;;;;;26.67;22.07;101776.75;5202943;28;20128;-81
2022/05/04 11:32:39;;;;;;;;;;;;;;;28.49;21.25;101777.91;5204652;28;20042;-86
2022/05/04 11:35:14;;;;;;;9.57;6.80;;;;;;;26.70;22.36;101775.56;5202912;28;21280;-83
2022/05/04 11:37:45;;;;;;;14.25;7.43;;;;;;;26.05;23.65;101763.09;5202516;28;20104;-81
2022/05/04 11:40:17;;;;;;;9.57;6.85;;;;;;;26.40;22.85;101764.63;5205485;28;20066;-84
2022/05/04 11:42:49;;;;;;;23.25;8.95;;;;;;;25.31;24.47;101756.00;5203946;28;20108;-85
2022/05/04 11:45:20;;;;;;;10.48;6.07;;;;;;;26.03;24.01;101761.56;5203429;28;20042;-78
2022/05/04 11:47:52;;;;;;;13.38;6.15;;;;;;;26.82;22.82;101757.19;5184594;28;20050;-79
2022/05/04 11:50:23;;;;;;;9.80;6.18;;;;;;;25.40;23.94;101748.78;5201600;28;20455;-73
2022/05/04 11:52:54;;;;;;;9.90;5.55;;;;;;;25.48;24.37;101751.47;5203212;28;20030;-77
2022/05/04 11:55:25;;;;;;;15.60;6.40;;;;;;;26.25;23.87;101749.22;5203247;28;20089;-80
2022/05/04 11:57:59;;;;;;;11.50;6.20;;;;;;;25.64;23.82;101739.03;5203550;28;20033;-74
2022/05/04 12:00:30;;;;;;;14.05;6.88;;;;;;;26.40;23.51;101740.47;5204053;28;20029;-79
2022/05/04 12:03:04;;;;;;;11.18;6.85;;;;;;;26.04;23.33;101731.88;5202511;28;20038;-80
2022/05/04 12:05:37;;;;;;;13.50;6.45;;;;;;;25.49;23.79;101737.03;5198950;28;20054;-79
2022/05/04 12:08:08;;;;;;;8.32;5.45;;;;;;;25.47;24.16;101741.72;5201357;28;20041;-79
2022/05/04 12:10:40;;;;;;;10.43;5.18;;;;;;;26.30;22.62;101733.47;5203046;28;20037;-68
2022/05/04 12:13:15;;;;;;;8.18;5.65;;;;;;;25.36;23.10;101732.22;5205326;28;20033;-82